Time;durP1;ratioP1;P1;durP2;ratioP2;P2;SDS_P1;SDS_P2;PMS_P1;PMS_P2;Temp;Humidity;BMP_temperature;BMP_pressure;BME280_temperature;BME280_humidity;BME280_pressure;Samples;Min_cycle;Max_cycle;Signal;HPM_P1;HPM_P2
2023/10/26 00:00:28;;;;;;;;;3.00;3.00;;;;;;;;5102545;27;45751;-75
2023/10/26 00:02:54;;;;;;;;;5.00;5.00;;;;;;;;5102799;27;45604;-76
2023/10/26 00:05:19;;;;;;;;;5.00;3.67;;;;;;;;5102189;27;46042;-76
2023/10/26 00:07:44;;;;;;;;;3.00;3.00;;;;;;;;5102661;27;45349;-76
2023/10/26 00:10:09;;;;;;;;;3.00;3.00;;;;;;;;5102506;27;45387;-76
2023/10/26 00:12:35;;;;;;;;;4.33;3.33;;;;;;;;5102422;27;45356;-75
2023/10/26 00:15:00;;;;;;;;;3.00;3.00;;;;;;;;5102161;27;46335;-76
2023/10/26 00:17:25;;;;;;;;;4.00;4.00;;;;;;;;5102342;27;45248;-76
2023/10/26 00:19:52;;;;;;;;;3.00;3.00;;;;;;;;5101108;27;45311;-75
2023/10/26 00:22:17;;;;;;;;;5.00;5.00;;;;;;;;5102174;27;45275;-76
2023/10/26 00:24:42;;;;;;;;;3.33;3.33;;;;;;;;5101286;27;45235;-75
2023/10/26 00:27:08;;;;;;;;;3.33;3.33;;;;;;;;5101752;27;45428;-76
2023/10/26 00:29:33;;;;;;;;;4.33;4.33;;;;;;;;5091301;27;45630;-75
2023/10/26 00:31:58;;;;;;;;;2.67;2.67;;;;;;;;5081695;28;45357;-76
2023/10/26 00:34:23;;;;;;;;;3.33;3.33;;;;;;;;5081664;28;45302;-76
2023/10/26 00:36:48;;;;;;;;;3.67;3.67;;;;;;;;5080995;28;45415;-75
2023/10/26 00:39:14;;;;;;;;;3.33;2.33;;;;;;;;5080379;28;45399;-76
2023/10/26 00:41:39;;;;;;;;;2.67;2.67;;;;;;;;5081114;28;45279;-76
2023/10/26 00:44:04;;;;;;;;;4.33;4.33;;;;;;;;5080575;28;45462;-76
2023/10/26 00:46:29;;;;;;;;;4.00;4.00;;;;;;;;5081345;28;45381;-76
2023/10/26 00:48:55;;;;;;;;;4.00;3.33;;;;;;;;5080081;28;45470;-75
2023/10/26 00:51:20;;;;;;;;;4.00;4.00;;;;;;;;5081296;28;45244;-76
2023/10/26 00:53:46;;;;;;;;;3.67;3.33;;;;;;;;5081408;28;45332;-76
2023/10/26 00:56:12;;;;;;;;;5.33;4.33;;;;;;;;5081247;28;45359;-76
2023/10/26 00:58:37;;;;;;;;;4.00;3.33;;;;;;;;5074596;27;45417;-75
2023/10/26 01:01:02;;;;;;;;;4.33;4.33;;;;;;;;5060285;28;45485;-76
2023/10/26 01:03:29;;;;;;;;;3.00;3.00;;;;;;;;5058608;28;47236;-75
2023/10/26 01:05:54;;;;;;;;;3.00;3.00;;;;;;;;5060566;28;45454;-76
2023/10/26 01:08:19;;;;;;;;;3.33;3.33;;;;;;;;5060842;28;45349;-75
2023/10/26 01:10:45;;;;;;;;;4.33;4.33;;;;;;;;5060748;28;45555;-76
2023/10/26 01:13:11;;;;;;;;;4.33;4.33;;;;;;;;5060732;28;46256;-76
2023/10/26 01:15:36;;;;;;;;;4.00;4.00;;;;;;;;5060424;28;45339;-76
2023/10/26 01:18:01;;;;;;;;;5.33;5.33;;;;;;;;5060864;28;45311;-76
2023/10/26 01:20:26;;;;;;;;;5.00;5.00;;;;;;;;5060518;28;45341;-75
2023/10/26 01:22:52;;;;;;;;;3.00;3.00;;;;;;;;5060602;28;46075;-75
2023/10/26 01:25:17;;;;;;;;;2.33;2.33;;;;;;;;5059178;28;45394;-75
2023/10/26 01:27:42;;;;;;;;;5.00;5.00;;;;;;;;5059563;28;45351;-76
2023/10/26 01:30:08;;;;;;;;;2.33;2.33;;;;;;;;5091160;27;45305;-76
2023/10/26 01:32:33;;;;;;;;;3.33;3.33;;;;;;;;5101137;27;46614;-76
2023/10/26 01:34:58;;;;;;;;;3.33;3.33;;;;;;;;5101246;27;45790;-76
2023/10/26 01:37:23;;;;;;;;;3.00;3.00;;;;;;;;5100659;27;45702;-75
2023/10/26 01:39:49;;;;;;;;;4.33;4.33;;;;;;;;5099589;27;47078;-76
2023/10/26 01:42:14;;;;;;;;;3.33;3.33;;;;;;;;5101062;27;45294;-76
2023/10/26 01:44:39;;;;;;;;;3.00;2.67;;;;;;;;5100826;27;45281;-76
2023/10/26 01:47:07;;;;;;;;;2.67;2.67;;;;;;;;5101024;27;45297;-76
2023/10/26 01:49:32;;;;;;;;;4.33;4.33;;;;;;;;5100814;27;45209;-77
2023/10/26 01:51:58;;;;;;;;;3.00;3.00;;;;;;;;5100742;27;45525;-77
2023/10/26 01:54:23;;;;;;;;;5.00;4.33;;;;;;;;5100968;27;45226;-78
2023/10/26 01:56:48;;;;;;;;;4.00;4.00;;;;;;;;5099501;27;45452;-77
2023/10/26 01:59:13;;;;;;;;;2.00;2.00;;;;;;;;5100622;27;45406;-77
2023/10/26 02:01:39;;;;;;;;;4.00;3.33;;;;;;;;5100631;27;46728;-77
2023/10/26 02:04:04;;;;;;;;;4.00;4.00;;;;;;;;5099562;27;45386;-76
2023/10/26 02:06:29;;;;;;;;;3.00;3.00;;;;;;;;5100448;27;45347;-76
2023/10/26 02:08:54;;;;;;;;;3.33;3.33;;;;;;;;5100631;27;45322;-76
2023/10/26 02:11:19;;;;;;;;;5.67;4.33;;;;;;;;5100576;27;46330;-75
2023/10/26 02:13:45;;;;;;;;;3.00;2.33;;;;;;;;5100510;27;45349;-75
2023/10/26 02:16:13;;;;;;;;;3.33;3.33;;;;;;;;5100614;27;45267;-76
2023/10/26 02:18:38;;;;;;;;;3.00;3.00;;;;;;;;5100608;27;45244;-75
2023/10/26 02:21:05;;;;;;;;;3.00;3.00;;;;;;;;5100235;27;46304;-75
2023/10/26 02:23:30;;;;;;;;;2.00;2.00;;;;;;;;5100588;27;45331;-76
2023/10/26 02:25:56;;;;;;;;;4.00;4.00;;;;;;;;5100601;27;45277;-76
2023/10/26 02:28:23;;;;;;;;;2.33;2.33;;;;;;;;5099796;27;45305;-75
2023/10/26 02:30:48;;;;;;;;;3.67;3.67;;;;;;;;5079774;28;46069;-75
2023/10/26 02:33:13;;;;;;;;;1.00;1.00;;;;;;;;5078508;28;45240;-76
2023/10/26 02:35:39;;;;;;;;;6.00;4.00;;;;;;;;5079933;28;45546;-76
2023/10/26 02:38:04;;;;;;;;;2.33;2.33;;;;;;;;5078476;28;46290;-76
2023/10/26 02:40:29;;;;;;;;;3.67;3.67;;;;;;;;5079675;28;45581;-76
2023/10/26 02:42:54;;;;;;;;;3.00;3.00;;;;;;;;5079891;28;45373;-76
2023/10/26 02:45:19;;;;;;;;;3.00;1.33;;;;;;;;5079729;28;45300;-76
2023/10/26 02:47:45;;;;;;;;;2.00;2.00;;;;;;;;5079543;28;45311;-76
2023/10/26 02:50:10;;;;;;;;;3.33;3.33;;;;;;;;5082946;28;45378;-76
2023/10/26 02:52:36;;;;;;;;;2.00;2.00;;;;;;;;5083260;28;45409;-76
2023/10/26 02:55:01;;;;;;;;;3.00;3.00;;;;;;;;5083453;28;45271;-76
2023/10/26 02:57:26;;;;;;;;;3.00;3.00;;;;;;;;5081682;28;46197;-76
2023/10/26 02:59:51;;;;;;;;;2.67;2.67;;;;;;;;5082951;28;45334;-76
2023/10/26 03:02:17;;;;;;;;;2.00;1.00;;;;;;;;5083283;28;45333;-76
2023/10/26 03:04:42;;;;;;;;;1.33;1.33;;;;;;;;5081920;28;45251;-76
2023/10/26 03:07:09;;;;;;;;;1.67;1.33;;;;;;;;5083015;28;45350;-76
2023/10/26 03:09:35;;;;;;;;;1.00;1.00;;;;;;;;5082948;28;45628;-76
2023/10/26 03:12:00;;;;;;;;;1.00;1.00;;;;;;;;5083028;28;45315;-76
2023/10/26 03:14:25;;;;;;;;;1.67;1.00;;;;;;;;5083057;28;45232;-76
2023/10/26 03:16:50;;;;;;;;;1.00;1.00;;;;;;;;5082793;28;45295;-76
2023/10/26 03:19:15;;;;;;;;;0.00;0.00;;;;;;;;5082945;28;45251;-76
2023/10/26 03:21:40;;;;;;;;;1.00;1.00;;;;;;;;5082792;28;45324;-75
2023/10/26 03:24:06;;;;;;;;;0.00;0.00;;;;;;;;5081727;28;45375;-76
2023/10/26 03:26:31;;;;;;;;;0.00;0.00;;;;;;;;5082866;28;45212;-76
2023/10/26 03:28:56;;;;;;;;;1.33;1.33;;;;;;;;5086600;27;47150;-76
2023/10/26 03:31:22;;;;;;;;;0.67;0.67;;;;;;;;5103272;27;45354;-76
2023/10/26 03:33:47;;;;;;;;;0.00;0.00;;;;;;;;5101968;27;45259;-76
2023/10/26 03:36:13;;;;;;;;;0.67;0.67;;;;;;;;5102950;27;45407;-76
2023/10/26 03:38:38;;;;;;;;;0.00;0.00;;;;;;;;5103058;27;45216;-76
2023/10/26 03:41:04;;;;;;;;;0.00;0.00;;;;;;;;5101525;27;45284;-76
2023/10/26 03:43:29;;;;;;;;;0.00;0.00;;;;;;;;5101704;27;45284;-76
2023/10/26 03:45:54;;;;;;;;;0.00;0.00;;;;;;;;5101323;27;45820;-76
2023/10/26 03:48:19;;;;;;;;;0.00;0.00;;;;;;;;5102856;27;46207;-76
2023/10/26 03:50:44;;;;;;;;;0.00;0.00;;;;;;;;5102886;27;45474;-77
2023/10/26 03:53:10;;;;;;;;;0.00;0.00;;;;;;;;5103057;27;45487;-76
2023/10/26 03:55:35;;;;;;;;;0.00;0.00;;;;;;;;5102794;27;45361;-76
2023/10/26 03:58:00;;;;;;;;;0.00;0.00;;;;;;;;5102765;27;45438;-76
2023/10/26 04:00:25;;;;;;;;;0.00;0.00;;;;;;;;5100912;27;45282;-76
2023/10/26 04:02:50;;;;;;;;;0.00;0.00;;;;;;;;5101668;27;45220;-76
2023/10/26 04:05:16;;;;;;;;;0.00;0.00;;;;;;;;5102586;27;45392;-76
2023/10/26 04:07:42;;;;;;;;;0.00;0.00;;;;;;;;5102628;27;45329;-76
2023/10/26 04:10:08;;;;;;;;;0.00;0.00;;;;;;;;5102537;27;45325;-76
2023/10/26 04:12:33;;;;;;;;;0.00;0.00;;;;;;;;5101422;27;45247;-76
2023/10/26 04:14:59;;;;;;;;;0.00;0.00;;;;;;;;5102383;27;45374;-76
2023/10/26 04:17:24;;;;;;;;;0.00;0.00;;;;;;;;5101001;27;47064;-76
2023/10/26 04:19:49;;;;;;;;;0.00;0.00;;;;;;;;5102715;27;45338;-76
2023/10/26 04:22:14;;;;;;;;;0.00;0.00;;;;;;;;5102546;27;45255;-76
2023/10/26 04:24:40;;;;;;;;;0.00;0.00;;;;;;;;5102455;27;45433;-76
2023/10/26 04:27:05;;;;;;;;;0.00;0.00;;;;;;;;5102324;27;46044;-76
2023/10/26 04:29:30;;;;;;;;;0.00;0.00;;;;;;;;5091760;27;45413;-77
2023/10/26 04:31:55;;;;;;;;;0.00;0.00;;;;;;;;5082063;28;45305;-76
2023/10/26 04:34:21;;;;;;;;;0.00;0.00;;;;;;;;5081680;28;45492;-77
2023/10/26 04:36:46;;;;;;;;;0.00;0.00;;;;;;;;5080153;28;48163;-76
2023/10/26 04:39:12;;;;;;;;;0.00;0.00;;;;;;;;5081798;28;45255;-76
2023/10/26 04:41:38;;;;;;;;;0.00;0.00;;;;;;;;5081738;28;45313;-76
2023/10/26 04:44:05;;;;;;;;;0.00;0.00;;;;;;;;5080066;28;45879;-76
2023/10/26 04:46:30;;;;;;;;;0.00;0.00;;;;;;;;5079865;28;48215;-76
2023/10/26 04:48:55;;;;;;;;;0.00;0.00;;;;;;;;5081513;28;45313;-76
2023/10/26 04:51:20;;;;;;;;;0.00;0.00;;;;;;;;5081576;28;45535;-76
2023/10/26 04:53:46;;;;;;;;;0.00;0.00;;;;;;;;5081428;28;45690;-76
2023/10/26 04:56:11;;;;;;;;;0.00;0.00;;;;;;;;5079804;28;46644;-76
2023/10/26 04:58:37;;;;;;;;;0.00;0.00;;;;;;;;5079868;28;45299;-76
2023/10/26 05:01:03;;;;;;;;;0.00;0.00;;;;;;;;5081605;28;45312;-76
2023/10/26 05:03:28;;;;;;;;;0.00;0.00;;;;;;;;5081275;28;45553;-76
2023/10/26 05:05:53;;;;;;;;;0.00;0.00;;;;;;;;5080629;28;45574;-76
2023/10/26 05:08:18;;;;;;;;;0.00;0.00;;;;;;;;5081184;28;45294;-76
2023/10/26 05:10:44;;;;;;;;;0.00;0.00;;;;;;;;5078840;28;45351;-76
2023/10/26 05:13:10;;;;;;;;;0.00;0.00;;;;;;;;5080493;28;45348;-76
2023/10/26 05:15:35;;;;;;;;;0.00;0.00;;;;;;;;5080665;28;45996;-77
2023/10/26 05:18:00;;;;;;;;;0.00;0.00;;;;;;;;5080671;28;45327;-76
2023/10/26 05:20:26;;;;;;;;;0.00;0.00;;;;;;;;5081051;28;45299;-76
2023/10/26 05:22:51;;;;;;;;;0.00;0.00;;;;;;;;5079336;28;46506;-76
2023/10/26 05:25:16;;;;;;;;;0.00;0.00;;;;;;;;5079425;28;48537;-77
2023/10/26 05:27:41;;;;;;;;;0.00;0.00;;;;;;;;5080863;28;45318;-76
2023/10/26 05:30:07;;;;;;;;;0.00;0.00;;;;;;;;5081209;27;45314;-76
2023/10/26 05:32:32;;;;;;;;;1.00;1.00;;;;;;;;5080845;28;45524;-76
2023/10/26 05:34:57;;;;;;;;;1.00;0.25;;;;;;;;5080698;28;45563;-77
2023/10/26 05:37:23;;;;;;;;;0.00;0.00;;;;;;;;5080473;28;45285;-76
2023/10/26 05:39:48;;;;;;;;;1.00;1.00;;;;;;;;5080796;28;45333;-77
2023/10/26 05:42:13;;;;;;;;;0.25;0.00;;;;;;;;5080668;28;45482;-77
2023/10/26 05:44:38;;;;;;;;;1.67;1.00;;;;;;;;5080628;28;45324;-77
2023/10/26 05:47:04;;;;;;;;;1.00;1.00;;;;;;;;5079090;28;45255;-77
2023/10/26 05:49:29;;;;;;;;;1.67;1.67;;;;;;;;5080176;28;45580;-77
2023/10/26 05:51:57;;;;;;;;;1.00;1.00;;;;;;;;5079583;28;45315;-77
2023/10/26 05:54:22;;;;;;;;;2.00;2.00;;;;;;;;5078768;28;47656;-77
2023/10/26 05:56:47;;;;;;;;;1.00;1.00;;;;;;;;5078834;28;45345;-77
2023/10/26 05:59:12;;;;;;;;;1.00;1.00;;;;;;;;5082211;28;45592;-78
2023/10/26 06:01:38;;;;;;;;;2.00;2.00;;;;;;;;5081737;28;45287;-78
2023/10/26 06:04:03;;;;;;;;;2.67;2.00;;;;;;;;5078834;28;47291;-77
2023/10/26 06:06:29;;;;;;;;;2.00;2.00;;;;;;;;5078853;28;45280;-78
2023/10/26 06:08:55;;;;;;;;;3.00;3.00;;;;;;;;5080564;28;45453;-79
2023/10/26 06:11:20;;;;;;;;;3.00;3.00;;;;;;;;5065045;27;45332;-77
2023/10/26 06:13:45;;;;;;;;;3.00;2.00;;;;;;;;5094657;27;47469;-78
2023/10/26 06:16:13;;;;;;;;;2.33;2.33;;;;;;;;5080555;28;45318;-77
2023/10/26 06:18:38;;;;;;;;;2.00;2.00;;;;;;;;5080288;28;45490;-77
2023/10/26 06:21:03;;;;;;;;;2.33;2.33;;;;;;;;5079883;28;45204;-78
2023/10/26 06:23:29;;;;;;;;;3.00;2.00;;;;;;;;5079962;28;46287;-77
2023/10/26 06:25:58;;;;;;;;;1.00;1.00;;;;;;;;5080064;28;45169;-77
2023/10/26 06:28:23;;;;;;;;;1.67;1.67;;;;;;;;5081639;27;45635;-78
2023/10/26 06:30:48;;;;;;;;;1.00;0.75;;;;;;;;5088857;27;47026;-75
2023/10/26 06:33:14;;;;;;;;;3.00;3.00;;;;;;;;5079907;28;45369;-76
2023/10/26 06:35:39;;;;;;;;;2.67;2.00;;;;;;;;5080030;28;45331;-76
2023/10/26 06:38:04;;;;;;;;;1.33;1.33;;;;;;;;5076053;28;45335;-76
2023/10/26 06:40:29;;;;;;;;;2.00;1.50;;;;;;;;5068326;28;45381;-75
2023/10/26 06:42:54;;;;;;;;;3.00;3.00;;;;;;;;5072020;28;47602;-75
2023/10/26 06:45:19;;;;;;;;;2.33;2.33;;;;;;;;5072774;28;45160;-75
2023/10/26 06:47:45;;;;;;;;;2.67;2.67;;;;;;;;5076865;28;45358;-75
2023/10/26 06:50:10;;;;;;;;;4.00;3.00;;;;;;;;5071328;28;46614;-75
2023/10/26 06:52:35;;;;;;;;;2.33;2.33;;;;;;;;5063360;28;47068;-76
2023/10/26 06:55:00;;;;;;;;;3.00;3.00;;;;;;;;5065165;28;45432;-76
2023/10/26 06:57:26;;;;;;;;;1.75;1.75;;;;;;;;5064906;28;45249;-76
2023/10/26 06:59:51;;;;;;;;;1.25;1.25;;;;;;;;5062293;28;45308;-76
2023/10/26 07:02:16;;;;;;;;;6.00;5.67;;;;;;;;5062119;28;45247;-76
2023/10/26 07:04:41;;;;;;;;;2.33;2.00;;;;;;;;5058068;28;45355;-75
2023/10/26 07:07:08;;;;;;;;;0.00;0.00;;;;;;;;5062698;28;45310;-75
2023/10/26 07:09:33;;;;;;;;;3.50;3.50;;;;;;;;5068863;28;47238;-75
2023/10/26 07:11:58;;;;;;;;;3.67;3.00;;;;;;;;5079631;28;46146;-76
2023/10/26 07:14:23;;;;;;;;;2.00;2.00;;;;;;;;5079394;28;45598;-76
2023/10/26 07:16:50;;;;;;;;;3.50;2.00;;;;;;;;5080398;28;45697;-76
2023/10/26 07:19:15;;;;;;;;;3.00;3.00;;;;;;;;5080029;28;45363;-76
2023/10/26 07:21:43;;;;;;;;;5.00;3.00;;;;;;;;5082120;28;46475;-76
2023/10/26 07:24:08;;;;;;;;;4.00;2.67;;;;;;;;5079487;28;45368;-76
2023/10/26 07:26:33;;;;;;;;;0.75;0.25;;;;;;;;5080884;28;45361;-76
2023/10/26 07:28:59;;;;;;;;;1.00;0.67;;;;;;;;5086754;27;45361;-76
2023/10/26 07:31:24;;;;;;;;;3.50;2.25;;;;;;;;5100787;27;45345;-76
2023/10/26 07:33:49;;;;;;;;;2.00;2.00;;;;;;;;5098652;27;45339;-76
2023/10/26 07:36:14;;;;;;;;;2.33;2.00;;;;;;;;5101600;27;45516;-76
2023/10/26 07:38:40;;;;;;;;;5.00;4.00;;;;;;;;5075237;27;45481;-76
2023/10/26 07:41:07;;;;;;;;;1.25;1.25;;;;;;;;5068714;28;45306;-76
2023/10/26 07:43:32;;;;;;;;;4.33;2.00;;;;;;;;5082711;28;45313;-76
2023/10/26 07:45:57;;;;;;;;;2.50;2.50;;;;;;;;5082795;28;45342;-76
2023/10/26 07:48:23;;;;;;;;;4.25;4.25;;;;;;;;5085180;28;47122;-75
2023/10/26 07:50:48;;;;;;;;;1.00;1.00;;;;;;;;5065450;28;45248;-76
2023/10/26 07:53:14;;;;;;;;;4.50;4.50;;;;;;;;5062465;28;45289;-77
2023/10/26 07:55:41;;;;;;;;;4.25;4.00;;;;;;;;5060698;28;45344;-76
2023/10/26 07:58:06;;;;;;;;;6.75;6.00;;;;;;;;5061887;28;45319;-76
2023/10/26 08:00:31;;;;;;;;;3.75;2.50;;;;;;;;5061699;28;45285;-76
2023/10/26 08:02:57;;;;;;;;;3.75;3.75;;;;;;;;5061833;28;45257;-76
2023/10/26 08:05:22;;;;;;;;;4.25;2.50;;;;;;;;5060184;28;45363;-76
2023/10/26 08:07:48;;;;;;;;;4.75;3.75;;;;;;;;5061988;28;45410;-76
2023/10/26 08:10:13;;;;;;;;;5.33;5.33;;;;;;;;5061656;28;46039;-77
2023/10/26 08:12:38;;;;;;;;;5.75;5.00;;;;;;;;5060289;28;46100;-76
2023/10/26 08:15:04;;;;;;;;;4.00;3.00;;;;;;;;5060386;28;45363;-77
2023/10/26 08:17:32;;;;;;;;;5.67;2.67;;;;;;;;5061939;28;45386;-77
2023/10/26 08:19:58;;;;;;;;;3.75;1.50;;;;;;;;5061582;28;46392;-78
2023/10/26 08:22:24;;;;;;;;;4.67;4.67;;;;;;;;5061599;28;45200;-76
2023/10/26 08:24:49;;;;;;;;;8.33;3.00;;;;;;;;5061650;28;45192;-77
2023/10/26 08:27:14;;;;;;;;;2.75;1.75;;;;;;;;5061223;28;45228;-76
2023/10/26 08:29:39;;;;;;;;;2.75;1.50;;;;;;;;5084468;27;45537;-77
2023/10/26 08:32:05;;;;;;;;;5.00;2.00;;;;;;;;5100747;27;45422;-77
2023/10/26 08:34:30;;;;;;;;;2.33;1.67;;;;;;;;5087323;27;45587;-76
2023/10/26 08:36:55;;;;;;;;;3.50;2.75;;;;;;;;5078157;27;45490;-77
2023/10/26 08:39:20;;;;;;;;;3.67;3.67;;;;;;;;5081275;28;45332;-77
2023/10/26 08:41:48;;;;;;;;;2.00;1.00;;;;;;;;5081238;28;45362;-77
2023/10/26 08:44:14;;;;;;;;;6.00;4.00;;;;;;;;5079884;28;45280;-78
2023/10/26 08:46:40;;;;;;;;;3.50;3.50;;;;;;;;5079953;28;45385;-76
2023/10/26 08:49:06;;;;;;;;;5.00;4.00;;;;;;;;5079596;27;48323;-76
2023/10/26 08:51:31;;;;;;;;;6.25;5.25;;;;;;;;5079738;28;45655;-77
2023/10/26 08:53:57;;;;;;;;;9.00;7.67;;;;;;;;5093190;27;45748;-77
2023/10/26 08:56:23;;;;;;;;;4.67;4.67;;;;;;;;5100131;27;46914;-78
2023/10/26 08:58:48;;;;;;;;;4.67;3.67;;;;;;;;5082709;27;45479;-76
2023/10/26 09:01:14;;;;;;;;;8.67;4.33;;;;;;;;5079778;28;45304;-77
2023/10/26 09:03:40;;;;;;;;;5.67;4.33;;;;;;;;5081249;28;45271;-77
2023/10/26 09:06:05;;;;;;;;;7.25;7.00;;;;;;;;5080488;28;45333;-76
2023/10/26 09:08:30;;;;;;;;;7.67;7.33;;;;;;;;5079708;28;47411;-77
2023/10/26 09:10:56;;;;;;;;;7.33;6.00;;;;;;;;5079503;28;45369;-77
2023/10/26 09:13:28;;;;;;;;;7.00;6.67;;;;;;;;5081114;28;45317;-76
2023/10/26 09:15:57;;;;;;;;;5.00;4.00;;;;;;;;5080887;28;45545;-77
2023/10/26 09:18:22;;;;;;;;;4.00;4.00;;;;;;;;5080753;28;45958;-77
2023/10/26 09:21:01;;;;;;;;;3.00;3.00;;;;;;;;5079475;28;45291;-78
2023/10/26 09:23:29;;;;;;;;;3.00;2.67;;;;;;;;5081122;28;45225;-77
2023/10/26 09:25:55;;;;;;;;;5.33;4.33;;;;;;;;5079099;28;47107;-79
2023/10/26 09:28:20;;;;;;;;;6.00;4.00;;;;;;;;5081169;27;45401;-77
2023/10/26 09:30:46;;;;;;;;;2.75;2.75;;;;;;;;5083034;27;45297;-78
2023/10/26 09:33:21;;;;;;;;;4.67;4.00;;;;;;;;5080877;28;45418;-78
2023/10/26 09:35:46;;;;;;;;;1.00;1.00;;;;;;;;5080582;28;45604;-77
2023/10/26 09:38:11;;;;;;;;;3.25;3.25;;;;;;;;5080224;28;45267;-76
2023/10/26 09:40:38;;;;;;;;;4.75;2.50;;;;;;;;5075988;28;45473;-76
2023/10/26 09:43:03;;;;;;;;;4.50;3.75;;;;;;;;5079941;28;45338;-76
2023/10/26 09:45:28;;;;;;;;;5.00;2.00;;;;;;;;5075432;28;45303;-78
2023/10/26 09:47:54;;;;;;;;;3.00;3.00;;;;;;;;5076911;28;48053;-77
2023/10/26 09:50:19;;;;;;;;;4.25;3.75;;;;;;;;5072370;28;45850;-78
2023/10/26 09:52:45;;;;;;;;;4.75;4.75;;;;;;;;5071355;28;45430;-77
2023/10/26 09:55:11;;;;;;;;;4.00;3.50;;;;;;;;5074397;28;45252;-76
2023/10/26 09:57:39;;;;;;;;;3.00;3.00;;;;;;;;5067710;28;47537;-76
2023/10/26 10:00:10;;;;;;;;;2.75;2.75;;;;;;;;5059969;28;45538;-77
2023/10/26 10:02:35;;;;;;;;;4.00;3.00;;;;;;;;5060143;28;45201;-75
2023/10/26 10:05:00;;;;;;;;;4.50;4.00;;;;;;;;5060509;28;45205;-75
2023/10/26 10:07:42;;;;;;;;;6.75;6.75;;;;;;;;5065264;28;45490;-77
2023/10/26 10:10:07;;;;;;;;;3.00;3.00;;;;;;;;5080227;28;45543;-77
2023/10/26 10:12:33;;;;;;;;;6.67;5.33;;;;;;;;5078621;28;45426;-79
2023/10/26 10:15:01;;;;;;;;;4.75;4.50;;;;;;;;5079864;28;45314;-78
2023/10/26 10:17:44;;;;;;;;;8.33;5.00;;;;;;;;5079867;28;46197;-77
2023/10/26 10:20:16;;;;;;;;;4.67;3.00;;;;;;;;5078639;28;45907;-77
2023/10/26 10:22:48;;;;;;;;;3.00;3.00;;;;;;;;5079112;28;45346;-76
2023/10/26 10:25:13;;;;;;;;;4.00;4.00;;;;;;;;5080186;28;45283;-76
2023/10/26 10:27:39;;;;;;;;;4.25;4.25;;;;;;;;5079981;28;46102;-76
2023/10/26 10:30:08;;;;;;;;;6.25;4.00;;;;;;;;5094954;27;45169;-76
2023/10/26 10:32:42;;;;;;;;;6.75;4.00;;;;;;;;5076138;27;45374;-76
2023/10/26 10:35:08;;;;;;;;;5.25;4.50;;;;;;;;5068503;28;45446;-77
2023/10/26 10:37:33;;;;;;;;;3.00;3.00;;;;;;;;5068340;28;46699;-76
2023/10/26 10:40:17;;;;;;;;;4.25;4.25;;;;;;;;5076145;27;46208;-76
2023/10/26 10:42:49;;;;;;;;;5.50;3.25;;;;;;;;5079747;28;45449;-75
2023/10/26 10:45:15;;;;;;;;;4.50;2.00;;;;;;;;5076922;27;46189;-76
2023/10/26 10:47:41;;;;;;;;;4.75;4.00;;;;;;;;5073039;28;45414;-76
2023/10/26 10:50:22;;;;;;;;;4.50;3.50;;;;;;;;5063117;27;45850;-75
2023/10/26 10:52:48;;;;;;;;;4.25;3.75;;;;;;;;5071469;28;45299;-75
2023/10/26 10:55:26;;;;;;;;;5.50;5.25;;;;;;;;5065144;28;45328;-78
2023/10/26 10:57:58;;;;;;;;;25.75;20.00;;;;;;;;5065635;28;45382;-73
2023/10/26 11:00:27;;;;;;;;;18.33;17.33;;;;;;;;5070193;28;45260;-76
2023/10/26 11:02:58;;;;;;;;;6.67;6.67;;;;;;;;5079767;28;45400;-76
2023/10/26 11:05:36;;;;;;;;;6.75;6.75;;;;;;;;5080119;28;45262;-75
2023/10/26 11:08:02;;;;;;;;;7.50;4.25;;;;;;;;5079394;28;46405;-77
2023/10/26 11:10:27;;;;;;;;;6.25;5.75;;;;;;;;5081652;28;45330;-77
2023/10/26 11:12:52;;;;;;;;;5.75;4.00;;;;;;;;5079882;28;45363;-77
2023/10/26 11:15:18;;;;;;;;;2.00;2.00;;;;;;;;5070369;28;45502;-75
2023/10/26 11:17:43;;;;;;;;;3.75;2.75;;;;;;;;5079713;28;45389;-76
2023/10/26 11:20:27;;;;;;;;;4.00;3.00;;;;;;;;5082821;28;45268;-75
2023/10/26 11:22:55;;;;;;;;;6.50;4.00;;;;;;;;5081635;28;45429;-75
2023/10/26 11:25:26;;;;;;;;;10.00;5.67;;;;;;;;5082874;28;45358;-76
2023/10/26 11:27:51;;;;;;;;;3.00;3.00;;;;;;;;5082731;28;46678;-75
2023/10/26 11:30:17;;;;;;;;;5.75;4.00;;;;;;;;5098088;27;45441;-76
2023/10/26 11:32:42;;;;;;;;;6.50;6.50;;;;;;;;5102545;27;45464;-76
2023/10/26 11:35:08;;;;;;;;;3.25;1.75;;;;;;;;5084519;27;46179;-76
2023/10/26 11:37:37;;;;;;;;;4.50;3.75;;;;;;;;5082510;28;45335;-77
2023/10/26 11:40:03;;;;;;;;;3.75;2.75;;;;;;;;5082614;28;45139;-76
2023/10/26 11:42:48;;;;;;;;;6.50;4.25;;;;;;;;5079667;27;45166;-75
2023/10/26 11:45:15;;;;;;;;;4.50;4.00;;;;;;;;5082124;27;45530;-76
2023/10/26 11:47:50;;;;;;;;;4.25;4.25;;;;;;;;5081833;27;45470;-77
2023/10/26 11:50:26;;;;;;;;;6.00;4.25;;;;;;;;5082511;28;45316;-76
2023/10/26 11:52:54;;;;;;;;;2.00;2.00;;;;;;;;5060932;28;45653;-75
2023/10/26 11:55:21;;;;;;;;;6.00;2.50;;;;;;;;5073307;28;46405;-76
2023/10/26 11:57:46;;;;;;;;;2.00;2.00;;;;;;;;5082663;28;46097;-76
2023/10/26 12:00:12;;;;;;;;;3.50;3.25;;;;;;;;5082194;28;45255;-75
2023/10/26 12:02:37;;;;;;;;;4.00;3.00;;;;;;;;5068248;28;45230;-76
2023/10/26 12:05:03;;;;;;;;;2.25;2.25;;;;;;;;5061986;28;45216;-76
2023/10/26 12:07:28;;;;;;;;;4.00;2.25;;;;;;;;5061408;28;47035;-77
2023/10/26 12:09:53;;;;;;;;;4.50;3.75;;;;;;;;5083133;28;45437;-75
2023/10/26 12:12:18;;;;;;;;;1.25;1.00;;;;;;;;5075039;28;45240;-75
2023/10/26 12:14:44;;;;;;;;;3.75;2.50;;;;;;;;5077006;28;46104;-75
2023/10/26 12:17:09;;;;;;;;;2.25;1.75;;;;;;;;5062531;28;46204;-75
2023/10/26 12:19:35;;;;;;;;;3.00;3.00;;;;;;;;5059200;28;45618;-75
2023/10/26 12:22:00;;;;;;;;;2.75;2.75;;;;;;;;5057366;28;45536;-76
2023/10/26 12:24:25;;;;;;;;;4.00;3.00;;;;;;;;5062408;28;45398;-76
2023/10/26 12:26:55;;;;;;;;;3.75;2.00;;;;;;;;5079494;28;45412;-75
2023/10/26 12:29:20;;;;;;;;;2.25;2.00;;;;;;;;5083701;27;45398;-76
2023/10/26 12:31:45;;;;;;;;;4.75;2.50;;;;;;;;5080708;28;45652;-76
2023/10/26 12:34:10;;;;;;;;;4.00;2.75;;;;;;;;5080635;28;45336;-75
2023/10/26 12:36:35;;;;;;;;;5.00;2.00;;;;;;;;5079260;28;47218;-76
2023/10/26 12:39:02;;;;;;;;;5.00;3.00;;;;;;;;5080479;28;45442;-75
2023/10/26 12:41:27;;;;;;;;;2.50;2.00;;;;;;;;5081145;28;45294;-76
2023/10/26 12:43:53;;;;;;;;;2.50;2.00;;;;;;;;5080972;28;45548;-75
2023/10/26 12:46:18;;;;;;;;;3.75;3.75;;;;;;;;5076827;28;46361;-76
2023/10/26 12:48:43;;;;;;;;;5.00;2.75;;;;;;;;5071129;28;45385;-76
2023/10/26 12:51:08;;;;;;;;;5.75;4.50;;;;;;;;5081158;28;45136;-75
2023/10/26 12:53:34;;;;;;;;;4.25;2.00;;;;;;;;5081069;28;45484;-76
2023/10/26 12:56:00;;;;;;;;;3.50;3.25;;;;;;;;5080689;28;45304;-76
2023/10/26 12:58:25;;;;;;;;;4.00;2.50;;;;;;;;5080968;28;45593;-75
2023/10/26 13:00:50;;;;;;;;;5.25;4.25;;;;;;;;5081004;28;45285;-76
2023/10/26 13:03:16;;;;;;;;;5.25;4.75;;;;;;;;5080722;28;45294;-76
2023/10/26 13:05:41;;;;;;;;;3.75;2.75;;;;;;;;5079633;27;48331;-77
2023/10/26 13:08:06;;;;;;;;;4.50;3.25;;;;;;;;5080754;28;45353;-75
2023/10/26 13:10:31;;;;;;;;;4.50;3.50;;;;;;;;5080798;28;45596;-75
2023/10/26 13:12:56;;;;;;;;;3.00;3.00;;;;;;;;5082410;27;45542;-76
2023/10/26 13:15:21;;;;;;;;;6.25;2.50;;;;;;;;5078309;28;47368;-76
2023/10/26 13:17:47;;;;;;;;;4.50;3.25;;;;;;;;5081039;28;45323;-77
2023/10/26 13:20:12;;;;;;;;;7.00;4.25;;;;;;;;5080293;28;45311;-79
2023/10/26 13:22:37;;;;;;;;;3.25;2.00;;;;;;;;5077493;27;45345;-75
2023/10/26 13:25:03;;;;;;;;;3.00;2.00;;;;;;;;5064524;28;47290;-76
2023/10/26 13:27:28;;;;;;;;;8.00;3.00;;;;;;;;5068683;27;45445;-76
2023/10/26 13:29:53;;;;;;;;;5.00;3.00;;;;;;;;5072274;27;45309;-77
2023/10/26 13:32:19;;;;;;;;;3.75;3.25;;;;;;;;5064809;28;45305;-75
2023/10/26 13:34:44;;;;;;;;;2.00;2.00;;;;;;;;5072097;28;46199;-75
2023/10/26 13:37:09;;;;;;;;;4.00;3.00;;;;;;;;5079590;28;45627;-75
2023/10/26 13:39:34;;;;;;;;;3.75;2.00;;;;;;;;5077364;28;45331;-76
2023/10/26 13:41:59;;;;;;;;;4.00;3.00;;;;;;;;5074404;28;45389;-76
2023/10/26 13:44:25;;;;;;;;;1.75;1.75;;;;;;;;5079848;27;46429;-76
2023/10/26 13:46:50;;;;;;;;;2.00;2.00;;;;;;;;5079772;27;45481;-75
2023/10/26 13:49:15;;;;;;;;;5.00;3.25;;;;;;;;5080358;28;45345;-76
2023/10/26 13:51:40;;;;;;;;;6.50;5.50;;;;;;;;5079584;28;45283;-76
2023/10/26 13:54:05;;;;;;;;;4.75;4.00;;;;;;;;5065672;28;46312;-75
2023/10/26 13:56:32;;;;;;;;;7.25;5.25;;;;;;;;5079926;28;45258;-76
2023/10/26 13:58:57;;;;;;;;;7.25;4.50;;;;;;;;5079873;28;45288;-76
2023/10/26 14:01:23;;;;;;;;;3.00;3.00;;;;;;;;5080147;28;45450;-76
2023/10/26 14:03:48;;;;;;;;;3.75;3.75;;;;;;;;5078170;28;47046;-76
2023/10/26 14:06:13;;;;;;;;;5.50;2.25;;;;;;;;5079808;28;45234;-76
2023/10/26 14:08:38;;;;;;;;;5.75;4.00;;;;;;;;5079848;28;45240;-76
2023/10/26 14:11:03;;;;;;;;;4.00;2.75;;;;;;;;5079919;28;45327;-76
2023/10/26 14:13:29;;;;;;;;;5.25;3.25;;;;;;;;5065950;27;46281;-76
2023/10/26 14:15:54;;;;;;;;;4.00;3.00;;;;;;;;5077429;28;45361;-75
2023/10/26 14:18:19;;;;;;;;;3.25;3.00;;;;;;;;5079738;28;45209;-76
2023/10/26 14:20:45;;;;;;;;;5.75;2.75;;;;;;;;5079400;28;45398;-76
2023/10/26 14:23:10;;;;;;;;;3.00;3.00;;;;;;;;5079692;28;45322;-75
2023/10/26 14:25:35;;;;;;;;;3.00;2.00;;;;;;;;5080176;28;45559;-74
2023/10/26 14:28:00;;;;;;;;;5.00;3.75;;;;;;;;5078288;28;45588;-76
2023/10/26 14:30:26;;;;;;;;;5.25;4.50;;;;;;;;5096382;27;47028;-75
2023/10/26 14:32:51;;;;;;;;;3.25;2.50;;;;;;;;5098996;27;48363;-75
2023/10/26 14:35:16;;;;;;;;;6.50;4.50;;;;;;;;5100287;27;45423;-76